sensor_id;sensor_type;location;lat;lon;timestamp;P1;durP1;ratioP1;P2;durP2;ratioP2
13171;SDS011;6651;53.200;10.432;2023-07-20T00:01:57;2.95;;;1.65;;
13171;SDS011;6651;53.200;10.432;2023-07-20T00:04:22;1.60;;;1.50;;
13171;SDS011;6651;53.200;10.432;2023-07-20T00:06:48;1.98;;;1.80;;
13171;SDS011;6651;53.200;10.432;2023-07-20T00:09:14;2.03;;;1.83;;
13171;SDS011;6651;53.200;10.432;2023-07-20T00:11:39;3.25;;;1.83;;
13171;SDS011;6651;53.200;10.432;2023-07-20T00:14:05;2.05;;;1.70;;
13171;SDS011;6651;53.200;10.432;2023-07-20T00:16:31;3.33;;;1.90;;
13171;SDS011;6651;53.200;10.432;2023-07-20T00:18:57;1.60;;;1.50;;
13171;SDS011;6651;53.200;10.432;2023-07-20T00:21:22;2.28;;;1.70;;
13171;SDS011;6651;53.200;10.432;2023-07-20T00:23:48;2.33;;;1.40;;
13171;SDS011;6651;53.200;10.432;2023-07-20T00:26:14;1.80;;;1.42;;
13171;SDS011;6651;53.200;10.432;2023-07-20T00:28:39;1.73;;;1.63;;
13171;SDS011;6651;53.200;10.432;2023-07-20T00:31:05;1.60;;;1.50;;
13171;SDS011;6651;53.200;10.432;2023-07-20T00:33:31;1.98;;;1.52;;
13171;SDS011;6651;53.200;10.432;2023-07-20T00:35:56;3.75;;;1.90;;
13171;SDS011;6651;53.200;10.432;2023-07-20T00:38:22;2.67;;;1.73;;
13171;SDS011;6651;53.200;10.432;2023-07-20T00:40:47;2.92;;;1.75;;
13171;SDS011;6651;53.200;10.432;2023-07-20T00:43:14;4.35;;;2.17;;
13171;SDS011;6651;53.200;10.432;2023-07-20T00:45:40;2.83;;;1.58;;
13171;SDS011;6651;53.200;10.432;2023-07-20T00:48:06;1.63;;;1.52;;
13171;SDS011;6651;53.200;10.432;2023-07-20T00:50:33;3.83;;;1.70;;
13171;SDS011;6651;53.200;10.432;2023-07-20T00:52:59;3.30;;;1.67;;
13171;SDS011;6651;53.200;10.432;2023-07-20T00:55:25;2.17;;;1.55;;
13171;SDS011;6651;53.200;10.432;2023-07-20T00:57:52;1.70;;;1.60;;
13171;SDS011;6651;53.200;10.432;2023-07-20T01:00:18;1.70;;;1.60;;
13171;SDS011;6651;53.200;10.432;2023-07-20T01:02:45;4.78;;;1.77;;
13171;SDS011;6651;53.200;10.432;2023-07-20T01:05:12;1.92;;;1.60;;
13171;SDS011;6651;53.200;10.432;2023-07-20T01:07:43;1.83;;;1.60;;
13171;SDS011;6651;53.200;10.432;2023-07-20T01:10:31;1.77;;;1.67;;
13171;SDS011;6651;53.200;10.432;2023-07-20T01:12:58;1.80;;;1.60;;
13171;SDS011;6651;53.200;10.432;2023-07-20T01:15:26;2.35;;;1.73;;
13171;SDS011;6651;53.200;10.432;2023-07-20T01:17:52;2.15;;;1.75;;
13171;SDS011;6651;53.200;10.432;2023-07-20T01:20:19;4.60;;;1.85;;
13171;SDS011;6651;53.200;10.432;2023-07-20T01:25:33;2.28;;;1.85;;
13171;SDS011;6651;53.200;10.432;2023-07-20T01:28:44;1.88;;;1.70;;
13171;SDS011;6651;53.200;10.432;2023-07-20T01:31:38;1.70;;;1.60;;
13171;SDS011;6651;53.200;10.432;2023-07-20T01:34:07;1.80;;;1.70;;
13171;SDS011;6651;53.200;10.432;2023-07-20T01:36:36;1.83;;;1.73;;
13171;SDS011;6651;53.200;10.432;2023-07-20T01:39:03;2.55;;;1.90;;
13171;SDS011;6651;53.200;10.432;2023-07-20T01:41:30;2.50;;;1.92;;
13171;SDS011;6651;53.200;10.432;2023-07-20T01:43:59;3.30;;;2.00;;
13171;SDS011;6651;53.200;10.432;2023-07-20T01:46:25;5.78;;;2.20;;
13171;SDS011;6651;53.200;10.432;2023-07-20T01:48:50;3.45;;;2.05;;
13171;SDS011;6651;53.200;10.432;2023-07-20T01:51:17;2.50;;;1.90;;
13171;SDS011;6651;53.200;10.432;2023-07-20T01:53:45;2.42;;;2.13;;
13171;SDS011;6651;53.200;10.432;2023-07-20T01:56:10;2.80;;;2.30;;
13171;SDS011;6651;53.200;10.432;2023-07-20T01:58:37;2.78;;;2.17;;
13171;SDS011;6651;53.200;10.432;2023-07-20T02:01:03;2.88;;;2.22;;
13171;SDS011;6651;53.200;10.432;2023-07-20T02:03:29;2.05;;;1.85;;
13171;SDS011;6651;53.200;10.432;2023-07-20T02:05:55;3.45;;;2.20;;
13171;SDS011;6651;53.200;10.432;2023-07-20T02:08:22;3.08;;;2.00;;
13171;SDS011;6651;53.200;10.432;2023-07-20T02:10:48;3.78;;;2.30;;
13171;SDS011;6651;53.200;10.432;2023-07-20T02:13:14;3.08;;;2.10;;
13171;SDS011;6651;53.200;10.432;2023-07-20T02:15:40;3.15;;;2.28;;
13171;SDS011;6651;53.200;10.432;2023-07-20T02:18:06;2.20;;;2.00;;
13171;SDS011;6651;53.200;10.432;2023-07-20T02:20:32;3.05;;;2.03;;
13171;SDS011;6651;53.200;10.432;2023-07-20T02:22:58;3.83;;;1.88;;
13171;SDS011;6651;53.200;10.432;2023-07-20T02:25:23;1.90;;;1.80;;
13171;SDS011;6651;53.200;10.432;2023-07-20T02:27:49;3.08;;;2.38;;
13171;SDS011;6651;53.200;10.432;2023-07-20T02:30:14;2.60;;;2.40;;
13171;SDS011;6651;53.200;10.432;2023-07-20T02:32:41;3.95;;;2.30;;
13171;SDS011;6651;53.200;10.432;2023-07-20T02:35:10;3.58;;;1.85;;
13171;SDS011;6651;53.200;10.432;2023-07-20T02:37:36;3.67;;;2.22;;
13171;SDS011;6651;53.200;10.432;2023-07-20T02:40:02;4.85;;;2.38;;
13171;SDS011;6651;53.200;10.432;2023-07-20T02:42:29;2.75;;;2.40;;
13171;SDS011;6651;53.200;10.432;2023-07-20T02:44:55;7.30;;;2.60;;
13171;SDS011;6651;53.200;10.432;2023-07-20T02:47:24;4.53;;;2.80;;
13171;SDS011;6651;53.200;10.432;2023-07-20T02:49:50;4.85;;;3.00;;
13171;SDS011;6651;53.200;10.432;2023-07-20T02:52:16;3.78;;;2.95;;
13171;SDS011;6651;53.200;10.432;2023-07-20T02:54:42;6.07;;;2.85;;
13171;SDS011;6651;53.200;10.432;2023-07-20T02:57:07;4.22;;;2.92;;
13171;SDS011;6651;53.200;10.432;2023-07-20T02:59:33;3.60;;;3.00;;
13171;SDS011;6651;53.200;10.432;2023-07-20T03:01:58;2.92;;;2.63;;
13171;SDS011;6651;53.200;10.432;2023-07-20T03:04:27;5.95;;;3.60;;
13171;SDS011;6651;53.200;10.432;2023-07-20T03:06:53;4.05;;;3.10;;
13171;SDS011;6651;53.200;10.432;2023-07-20T03:09:19;6.15;;;3.28;;
13171;SDS011;6651;53.200;10.432;2023-07-20T03:11:44;4.40;;;2.90;;
13171;SDS011;6651;53.200;10.432;2023-07-20T03:14:10;6.07;;;3.30;;
13171;SDS011;6651;53.200;10.432;2023-07-20T03:16:36;4.55;;;3.50;;
13171;SDS011;6651;53.200;10.432;2023-07-20T03:19:02;4.10;;;2.95;;
13171;SDS011;6651;53.200;10.432;2023-07-20T03:21:28;3.97;;;3.25;;
13171;SDS011;6651;53.200;10.432;2023-07-20T03:23:54;4.82;;;3.33;;
13171;SDS011;6651;53.200;10.432;2023-07-20T03:26:20;3.85;;;3.47;;
13171;SDS011;6651;53.200;10.432;2023-07-20T03:28:46;5.65;;;3.60;;
13171;SDS011;6651;53.200;10.432;2023-07-20T03:31:12;5.30;;;3.70;;
13171;SDS011;6651;53.200;10.432;2023-07-20T03:33:37;4.57;;;3.40;;
13171;SDS011;6651;53.200;10.432;2023-07-20T03:36:03;5.60;;;3.65;;
13171;SDS011;6651;53.200;10.432;2023-07-20T03:38:30;6.03;;;3.75;;
13171;SDS011;6651;53.200;10.432;2023-07-20T03:40:59;4.80;;;3.30;;
13171;SDS011;6651;53.200;10.432;2023-07-20T03:43:25;3.50;;;3.20;;
13171;SDS011;6651;53.200;10.432;2023-07-20T03:45:52;4.25;;;3.20;;
13171;SDS011;6651;53.200;10.432;2023-07-20T03:48:19;7.15;;;3.50;;
13171;SDS011;6651;53.200;10.432;2023-07-20T03:50:47;4.10;;;3.78;;
13171;SDS011;6651;53.200;10.432;2023-07-20T03:53:14;4.40;;;3.08;;
13171;SDS011;6651;53.200;10.432;2023-07-20T03:55:41;3.90;;;3.03;;
13171;SDS011;6651;53.200;10.432;2023-07-20T03:58:09;4.35;;;3.22;;
13171;SDS011;6651;53.200;10.432;2023-07-20T04:00:35;2.97;;;2.72;;
13171;SDS011;6651;53.200;10.432;2023-07-20T04:03:00;3.65;;;2.90;;
13171;SDS011;6651;53.200;10.432;2023-07-20T04:05:26;3.45;;;2.70;;
13171;SDS011;6651;53.200;10.432;2023-07-20T04:07:52;2.85;;;2.35;;
13171;SDS011;6651;53.200;10.432;2023-07-20T04:10:18;3.22;;;2.60;;
13171;SDS011;6651;53.200;10.432;2023-07-20T04:12:44;3.70;;;2.10;;
13171;SDS011;6651;53.200;10.432;2023-07-20T04:15:12;2.45;;;2.03;;
13171;SDS011;6651;53.200;10.432;2023-07-20T04:17:38;2.15;;;1.92;;
13171;SDS011;6651;53.200;10.432;2023-07-20T04:20:04;2.47;;;2.10;;
13171;SDS011;6651;53.200;10.432;2023-07-20T04:22:31;2.60;;;2.00;;
13171;SDS011;6651;53.200;10.432;2023-07-20T04:24:57;1.70;;;1.60;;
13171;SDS011;6651;53.200;10.432;2023-07-20T04:27:22;2.30;;;1.80;;
13171;SDS011;6651;53.200;10.432;2023-07-20T04:29:48;3.20;;;1.80;;
13171;SDS011;6651;53.200;10.432;2023-07-20T04:32:13;2.30;;;1.70;;
13171;SDS011;6651;53.200;10.432;2023-07-20T04:34:39;2.83;;;1.70;;
13171;SDS011;6651;53.200;10.432;2023-07-20T04:37:05;1.80;;;1.70;;
13171;SDS011;6651;53.200;10.432;2023-07-20T04:39:30;2.53;;;1.90;;
13171;SDS011;6651;53.200;10.432;2023-07-20T04:41:57;1.83;;;1.60;;
13171;SDS011;6651;53.200;10.432;2023-07-20T04:44:22;4.32;;;1.88;;
13171;SDS011;6651;53.200;10.432;2023-07-20T04:46:48;1.73;;;1.48;;
13171;SDS011;6651;53.200;10.432;2023-07-20T04:49:14;1.50;;;1.38;;
13171;SDS011;6651;53.200;10.432;2023-07-20T04:51:40;4.07;;;1.60;;
13171;SDS011;6651;53.200;10.432;2023-07-20T04:54:05;1.42;;;1.33;;
13171;SDS011;6651;53.200;10.432;2023-07-20T04:56:31;3.20;;;1.60;;
13171;SDS011;6651;53.200;10.432;2023-07-20T04:58:56;2.28;;;1.40;;
13171;SDS011;6651;53.200;10.432;2023-07-20T05:01:23;1.98;;;1.38;;
13171;SDS011;6651;53.200;10.432;2023-07-20T05:03:48;1.70;;;1.60;;
13171;SDS011;6651;53.200;10.432;2023-07-20T05:06:14;2.67;;;1.58;;
13171;SDS011;6651;53.200;10.432;2023-07-20T05:08:40;3.20;;;1.90;;
13171;SDS011;6651;53.200;10.432;2023-07-20T05:11:06;1.80;;;1.70;;
13171;SDS011;6651;53.200;10.432;2023-07-20T05:13:32;2.80;;;1.63;;
13171;SDS011;6651;53.200;10.432;2023-07-20T05:15:58;2.22;;;1.58;;
13171;SDS011;6651;53.200;10.432;2023-07-20T05:18:24;3.42;;;1.70;;
13171;SDS011;6651;53.200;10.432;2023-07-20T05:20:50;1.70;;;1.60;;
13171;SDS011;6651;53.200;10.432;2023-07-20T05:23:17;2.65;;;1.90;;
13171;SDS011;6651;53.200;10.432;2023-07-20T05:25:44;2.38;;;1.98;;
13171;SDS011;6651;53.200;10.432;2023-07-20T05:28:09;4.38;;;1.98;;
13171;SDS011;6651;53.200;10.432;2023-07-20T05:30:35;2.80;;;2.25;;
13171;SDS011;6651;53.200;10.432;2023-07-20T05:33:01;4.00;;;2.30;;
13171;SDS011;6651;53.200;10.432;2023-07-20T05:35:26;2.00;;;1.90;;
13171;SDS011;6651;53.200;10.432;2023-07-20T05:37:52;2.72;;;2.53;;
13171;SDS011;6651;53.200;10.432;2023-07-20T05:40:18;2.30;;;2.20;;
13171;SDS011;6651;53.200;10.432;2023-07-20T05:42:47;2.58;;;2.28;;
13171;SDS011;6651;53.200;10.432;2023-07-20T05:45:16;3.08;;;2.35;;
13171;SDS011;6651;53.200;10.432;2023-07-20T05:47:42;3.45;;;2.58;;
13171;SDS011;6651;53.200;10.432;2023-07-20T05:50:08;2.50;;;2.30;;
13171;SDS011;6651;53.200;10.432;2023-07-20T05:52:34;2.20;;;2.10;;
13171;SDS011;6651;53.200;10.432;2023-07-20T05:55:00;2.80;;;2.33;;
13171;SDS011;6651;53.200;10.432;2023-07-20T05:57:26;2.25;;;2.05;;
13171;SDS011;6651;53.200;10.432;2023-07-20T05:59:51;2.10;;;2.00;;
13171;SDS011;6651;53.200;10.432;2023-07-20T06:02:17;3.90;;;2.15;;
13171;SDS011;6651;53.200;10.432;2023-07-20T06:04:43;2.83;;;2.17;;
13171;SDS011;6651;53.200;10.432;2023-07-20T06:07:08;3.10;;;2.00;;
13171;SDS011;6651;53.200;10.432;2023-07-20T06:09:34;4.10;;;2.10;;
13171;SDS011;6651;53.200;10.432;2023-07-20T06:12:00;4.32;;;2.13;;
13171;SDS011;6651;53.200;10.432;2023-07-20T06:14:25;5.28;;;1.65;;
13171;SDS011;6651;53.200;10.432;2023-07-20T06:16:51;2.17;;;1.80;;
13171;SDS011;6651;53.200;10.432;2023-07-20T06:19:17;1.90;;;1.70;;
13171;SDS011;6651;53.200;10.432;2023-07-20T06:21:43;2.25;;;1.70;;
13171;SDS011;6651;53.200;10.432;2023-07-20T06:24:08;1.83;;;1.63;;
13171;SDS011;6651;53.200;10.432;2023-07-20T06:26:34;1.55;;;1.40;;
13171;SDS011;6651;53.200;10.432;2023-07-20T06:29:06;1.67;;;1.58;;
13171;SDS011;6651;53.200;10.432;2023-07-20T06:31:32;1.75;;;1.40;;
13171;SDS011;6651;53.200;10.432;2023-07-20T06:33:58;1.40;;;1.40;;
13171;SDS011;6651;53.200;10.432;2023-07-20T06:36:24;3.58;;;1.90;;
13171;SDS011;6651;53.200;10.432;2023-07-20T06:38:51;1.90;;;1.80;;
13171;SDS011;6651;53.200;10.432;2023-07-20T06:41:17;2.40;;;1.70;;
13171;SDS011;6651;53.200;10.432;2023-07-20T06:43:43;1.85;;;1.60;;
13171;SDS011;6651;53.200;10.432;2023-07-20T06:46:08;2.40;;;1.52;;
13171;SDS011;6651;53.200;10.432;2023-07-20T06:48:34;3.33;;;1.90;;
13171;SDS011;6651;53.200;10.432;2023-07-20T06:50:59;3.30;;;1.85;;
13171;SDS011;6651;53.200;10.432;2023-07-20T06:53:25;1.90;;;1.80;;
13171;SDS011;6651;53.200;10.432;2023-07-20T06:55:51;1.98;;;1.83;;
13171;SDS011;6651;53.200;10.432;2023-07-20T06:58:16;3.40;;;2.00;;
13171;SDS011;6651;53.200;10.432;2023-07-20T07:00:43;2.08;;;1.90;;
13171;SDS011;6651;53.200;10.432;2023-07-20T07:03:09;2.55;;;2.13;;
13171;SDS011;6651;53.200;10.432;2023-07-20T07:05:36;2.13;;;1.88;;
13171;SDS011;6651;53.200;10.432;2023-07-20T07:08:03;2.85;;;2.05;;
13171;SDS011;6651;53.200;10.432;2023-07-20T07:10:31;2.30;;;2.10;;
13171;SDS011;6651;53.200;10.432;2023-07-20T07:13:01;2.55;;;2.10;;
13171;SDS011;6651;53.200;10.432;2023-07-20T07:15:27;2.33;;;2.10;;
13171;SDS011;6651;53.200;10.432;2023-07-20T07:17:53;2.28;;;1.80;;
13171;SDS011;6651;53.200;10.432;2023-07-20T07:20:18;2.15;;;1.90;;
13171;SDS011;6651;53.200;10.432;2023-07-20T07:22:44;2.28;;;1.65;;
13171;SDS011;6651;53.200;10.432;2023-07-20T07:25:10;2.67;;;1.75;;
13171;SDS011;6651;53.200;10.432;2023-07-20T07:27:36;2.72;;;1.55;;
13171;SDS011;6651;53.200;10.432;2023-07-20T07:30:02;1.98;;;1.42;;
13171;SDS011;6651;53.200;10.432;2023-07-20T07:32:28;2.28;;;1.50;;
13171;SDS011;6651;53.200;10.432;2023-07-20T07:34:54;2.58;;;1.55;;
13171;SDS011;6651;53.200;10.432;2023-07-20T07:37:20;4.70;;;1.88;;
13171;SDS011;6651;53.200;10.432;2023-07-20T07:39:46;2.05;;;1.60;;
13171;SDS011;6651;53.200;10.432;2023-07-20T07:42:12;1.83;;;1.40;;
13171;SDS011;6651;53.200;10.432;2023-07-20T07:44:38;1.92;;;1.30;;
13171;SDS011;6651;53.200;10.432;2023-07-20T07:47:04;3.13;;;1.50;;
13171;SDS011;6651;53.200;10.432;2023-07-20T07:49:30;1.67;;;1.30;;
13171;SDS011;6651;53.200;10.432;2023-07-20T07:51:56;2.15;;;1.40;;
13171;SDS011;6651;53.200;10.432;2023-07-20T07:54:22;1.85;;;1.42;;
13171;SDS011;6651;53.200;10.432;2023-07-20T07:56:47;3.15;;;1.42;;
13171;SDS011;6651;53.200;10.432;2023-07-20T07:59:13;2.08;;;1.20;;
13171;SDS011;6651;53.200;10.432;2023-07-20T08:01:39;6.80;;;1.98;;
13171;SDS011;6651;53.200;10.432;2023-07-20T08:04:05;4.53;;;1.33;;
13171;SDS011;6651;53.200;10.432;2023-07-20T08:06:30;2.83;;;1.30;;
13171;SDS011;6651;53.200;10.432;2023-07-20T08:08:56;3.22;;;1.30;;
13171;SDS011;6651;53.200;10.432;2023-07-20T08:11:22;2.00;;;1.02;;
13171;SDS011;6651;53.200;10.432;2023-07-20T08:13:48;2.85;;;1.45;;
13171;SDS011;6651;53.200;10.432;2023-07-20T08:16:14;4.80;;;1.48;;
13171;SDS011;6651;53.200;10.432;2023-07-20T08:18:40;3.85;;;1.45;;
13171;SDS011;6651;53.200;10.432;2023-07-20T08:21:05;3.40;;;1.27;;
13171;SDS011;6651;53.200;10.432;2023-07-20T08:23:31;2.13;;;1.38;;
13171;SDS011;6651;53.200;10.432;2023-07-20T08:25:57;2.28;;;1.27;;
13171;SDS011;6651;53.200;10.432;2023-07-20T08:28:22;2.47;;;1.15;;
13171;SDS011;6651;53.200;10.432;2023-07-20T08:30:48;1.45;;;1.23;;
13171;SDS011;6651;53.200;10.432;2023-07-20T08:33:15;4.00;;;1.27;;
13171;SDS011;6651;53.200;10.432;2023-07-20T08:35:43;2.35;;;1.17;;
13171;SDS011;6651;53.200;10.432;2023-07-20T08:38:08;2.95;;;1.20;;
13171;SDS011;6651;53.200;10.432;2023-07-20T08:40:39;1.88;;;1.00;;
13171;SDS011;6651;53.200;10.432;2023-07-20T08:43:12;3.38;;;1.52;;
13171;SDS011;6651;53.200;10.432;2023-07-20T08:45:39;2.22;;;1.23;;
13171;SDS011;6651;53.200;10.432;2023-07-20T08:48:06;2.28;;;1.20;;
13171;SDS011;6651;53.200;10.432;2023-07-20T08:50:33;3.58;;;1.42;;
13171;SDS011;6651;53.200;10.432;2023-07-20T08:53:00;3.20;;;1.40;;
13171;SDS011;6651;53.200;10.432;2023-07-20T08:55:27;1.52;;;1.10;;
13171;SDS011;6651;53.200;10.432;2023-07-20T08:57:54;1.73;;;1.23;;
13171;SDS011;6651;53.200;10.432;2023-07-20T09:00:21;5.25;;;1.30;;
13171;SDS011;6651;53.200;10.432;2023-07-20T09:02:49;1.30;;;1.02;;
13171;SDS011;6651;53.200;10.432;2023-07-20T09:05:17;2.10;;;1.40;;
13171;SDS011;6651;53.200;10.432;2023-07-20T09:07:44;3.15;;;1.13;;
13171;SDS011;6651;53.200;10.432;2023-07-20T09:10:09;1.35;;;1.10;;
13171;SDS011;6651;53.200;10.432;2023-07-20T09:12:37;2.35;;;1.13;;
13171;SDS011;6651;53.200;10.432;2023-07-20T09:15:04;2.28;;;1.25;;
13171;SDS011;6651;53.200;10.432;2023-07-20T09:17:30;2.95;;;1.33;;
13171;SDS011;6651;53.200;10.432;2023-07-20T09:19:56;2.50;;;1.25;;
13171;SDS011;6651;53.200;10.432;2023-07-20T09:22:22;1.58;;;1.13;;
13171;SDS011;6651;53.200;10.432;2023-07-20T09:24:55;1.38;;;1.00;;
13171;SDS011;6651;53.200;10.432;2023-07-20T09:27:21;1.88;;;1.10;;
13171;SDS011;6651;53.200;10.432;2023-07-20T09:29:47;2.90;;;1.33;;
13171;SDS011;6651;53.200;10.432;2023-07-20T09:32:17;2.50;;;1.23;;
13171;SDS011;6651;53.200;10.432;2023-07-20T09:34:47;1.40;;;0.98;;
13171;SDS011;6651;53.200;10.432;2023-07-20T09:37:16;2.40;;;1.20;;
13171;SDS011;6651;53.200;10.432;2023-07-20T09:39:48;2.10;;;1.13;;
13171;SDS011;6651;53.200;10.432;2023-07-20T09:42:17;2.05;;;1.13;;
13171;SDS011;6651;53.200;10.432;2023-07-20T09:44:43;2.97;;;1.20;;
13171;SDS011;6651;53.200;10.432;2023-07-20T09:47:09;1.98;;;1.17;;
13171;SDS011;6651;53.200;10.432;2023-07-20T09:49:41;2.17;;;1.17;;
13171;SDS011;6651;53.200;10.432;2023-07-20T09:52:10;1.67;;;1.17;;
13171;SDS011;6651;53.200;10.432;2023-07-20T09:54:37;2.25;;;1.27;;
13171;SDS011;6651;53.200;10.432;2023-07-20T09:57:03;2.28;;;1.30;;
13171;SDS011;6651;53.200;10.432;2023-07-20T09:59:32;2.95;;;1.30;;
13171;SDS011;6651;53.200;10.432;2023-07-20T10:01:58;2.92;;;1.60;;
13171;SDS011;6651;53.200;10.432;2023-07-20T10:04:25;4.50;;;1.88;;
13171;SDS011;6651;53.200;10.432;2023-07-20T10:06:54;3.38;;;1.70;;
13171;SDS011;6651;53.200;10.432;2023-07-20T10:09:21;3.13;;;1.75;;
13171;SDS011;6651;53.200;10.432;2023-07-20T10:11:49;3.55;;;1.90;;
13171;SDS011;6651;53.200;10.432;2023-07-20T10:14:16;2.42;;;1.83;;
13171;SDS011;6651;53.200;10.432;2023-07-20T10:16:51;3.75;;;2.08;;
13171;SDS011;6651;53.200;10.432;2023-07-20T10:19:34;4.28;;;1.80;;
13171;SDS011;6651;53.200;10.432;2023-07-20T10:22:15;1.88;;;1.67;;
13171;SDS011;6651;53.200;10.432;2023-07-20T10:24:45;2.00;;;1.80;;
13171;SDS011;6651;53.200;10.432;2023-07-20T10:27:12;2.53;;;1.70;;
13171;SDS011;6651;53.200;10.432;2023-07-20T10:29:38;3.33;;;1.70;;
13171;SDS011;6651;53.200;10.432;2023-07-20T10:32:06;3.85;;;1.70;;
13171;SDS011;6651;53.200;10.432;2023-07-20T10:34:33;1.98;;;1.70;;
13171;SDS011;6651;53.200;10.432;2023-07-20T10:37:02;2.92;;;1.80;;
13171;SDS011;6651;53.200;10.432;2023-07-20T10:39:30;2.05;;;1.83;;
13171;SDS011;6651;53.200;10.432;2023-07-20T10:42:06;3.25;;;2.00;;
13171;SDS011;6651;53.200;10.432;2023-07-20T10:44:32;2.60;;;1.70;;
13171;SDS011;6651;53.200;10.432;2023-07-20T10:47:02;4.55;;;2.03;;
13171;SDS011;6651;53.200;10.432;2023-07-20T10:49:33;3.25;;;1.80;;
13171;SDS011;6651;53.200;10.432;2023-07-20T10:52:03;3.05;;;1.75;;
13171;SDS011;6651;53.200;10.432;2023-07-20T10:56:56;1.85;;;1.55;;
13171;SDS011;6651;53.200;10.432;2023-07-20T11:01:48;3.50;;;2.00;;
13171;SDS011;6651;53.200;10.432;2023-07-20T11:04:14;3.47;;;2.03;;
13171;SDS011;6651;53.200;10.432;2023-07-20T11:06:43;3.17;;;1.98;;
13171;SDS011;6651;53.200;10.432;2023-07-20T11:11:46;5.60;;;1.70;;
13171;SDS011;6651;53.200;10.432;2023-07-20T11:14:22;5.47;;;1.92;;
13171;SDS011;6651;53.200;10.432;2023-07-20T11:16:49;4.25;;;1.70;;
13171;SDS011;6651;53.200;10.432;2023-07-20T11:21:46;3.50;;;1.85;;
13171;SDS011;6651;53.200;10.432;2023-07-20T11:24:15;4.18;;;1.67;;
13171;SDS011;6651;53.200;10.432;2023-07-20T11:26:44;2.50;;;1.65;;
13171;SDS011;6651;53.200;10.432;2023-07-20T11:29:10;2.15;;;1.42;;
13171;SDS011;6651;53.200;10.432;2023-07-20T11:31:37;3.55;;;1.88;;
13171;SDS011;6651;53.200;10.432;2023-07-20T11:34:04;3.13;;;1.40;;
13171;SDS011;6651;53.200;10.432;2023-07-20T11:36:30;3.92;;;1.88;;
13171;SDS011;6651;53.200;10.432;2023-07-20T11:38:56;3.08;;;1.73;;
13171;SDS011;6651;53.200;10.432;2023-07-20T11:41:24;3.15;;;1.60;;
13171;SDS011;6651;53.200;10.432;2023-07-20T11:43:51;2.50;;;1.50;;
13171;SDS011;6651;53.200;10.432;2023-07-20T11:46:16;4.00;;;1.75;;
13171;SDS011;6651;53.200;10.432;2023-07-20T11:48:42;2.60;;;1.60;;
13171;SDS011;6651;53.200;10.432;2023-07-20T11:51:14;3.45;;;1.65;;
13171;SDS011;6651;53.200;10.432;2023-07-20T11:53:41;4.43;;;1.58;;
13171;SDS011;6651;53.200;10.432;2023-07-20T11:56:09;1.92;;;1.17;;
13171;SDS011;6651;53.200;10.432;2023-07-20T11:58:36;2.13;;;1.40;;
13171;SDS011;6651;53.200;10.432;2023-07-20T12:01:06;2.42;;;1.60;;
13171;SDS011;6651;53.200;10.432;2023-07-20T12:03:31;2.60;;;1.40;;
13171;SDS011;6651;53.200;10.432;2023-07-20T12:06:05;3.58;;;1.60;;
13171;SDS011;6651;53.200;10.432;2023-07-20T12:08:32;2.70;;;1.38;;
13171;SDS011;6651;53.200;10.432;2023-07-20T12:10:58;3.83;;;1.50;;
13171;SDS011;6651;53.200;10.432;2023-07-20T12:13:23;3.40;;;1.50;;
13171;SDS011;6651;53.200;10.432;2023-07-20T12:16:06;2.80;;;1.60;;
13171;SDS011;6651;53.200;10.432;2023-07-20T12:18:36;2.20;;;1.50;;
13171;SDS011;6651;53.200;10.432;2023-07-20T12:21:02;2.03;;;1.40;;
13171;SDS011;6651;53.200;10.432;2023-07-20T12:23:34;3.90;;;1.50;;
13171;SDS011;6651;53.200;10.432;2023-07-20T12:26:06;3.40;;;1.40;;
13171;SDS011;6651;53.200;10.432;2023-07-20T12:32:28;2.45;;;1.50;;
13171;SDS011;6651;53.200;10.432;2023-07-20T12:35:20;3.00;;;1.70;;
13171;SDS011;6651;53.200;10.432;2023-07-20T12:38:11;3.05;;;1.40;;
13171;SDS011;6651;53.200;10.432;2023-07-20T12:40:48;2.85;;;1.40;;
13171;SDS011;6651;53.200;10.432;2023-07-20T12:46:59;2.53;;;1.40;;
13171;SDS011;6651;53.200;10.432;2023-07-20T12:49:43;2.35;;;1.30;;
13171;SDS011;6651;53.200;10.432;2023-07-20T12:52:13;2.33;;;1.13;;
13171;SDS011;6651;53.200;10.432;2023-07-20T12:55:51;3.47;;;1.30;;
13171;SDS011;6651;53.200;10.432;2023-07-20T12:58:58;2.35;;;1.30;;
13171;SDS011;6651;53.200;10.432;2023-07-20T13:02:19;3.15;;;1.40;;
13171;SDS011;6651;53.200;10.432;2023-07-20T13:05:11;1.85;;;1.23;;
13171;SDS011;6651;53.200;10.432;2023-07-20T13:07:51;2.75;;;1.10;;
13171;SDS011;6651;53.200;10.432;2023-07-20T13:10:33;2.67;;;1.20;;
13171;SDS011;6651;53.200;10.432;2023-07-20T13:12:59;2.72;;;1.40;;
13171;SDS011;6651;53.200;10.432;2023-07-20T13:15:44;3.00;;;1.20;;
13171;SDS011;6651;53.200;10.432;2023-07-20T13:18:14;2.35;;;1.20;;
13171;SDS011;6651;53.200;10.432;2023-07-20T13:20:43;2.05;;;1.30;;
13171;SDS011;6651;53.200;10.432;2023-07-20T13:23:09;3.58;;;1.60;;
13171;SDS011;6651;53.200;10.432;2023-07-20T13:25:42;3.45;;;1.40;;
13171;SDS011;6651;53.200;10.432;2023-07-20T13:28:07;1.77;;;1.25;;
13171;SDS011;6651;53.200;10.432;2023-07-20T13:30:40;3.75;;;1.40;;
13171;SDS011;6651;53.200;10.432;2023-07-20T13:33:23;2.80;;;1.40;;
13171;SDS011;6651;53.200;10.432;2023-07-20T13:43:36;2.47;;;1.30;;
13171;SDS011;6651;53.200;10.432;2023-07-20T13:49:58;3.03;;;1.40;;
13171;SDS011;6651;53.200;10.432;2023-07-20T13:52:55;2.17;;;1.38;;
13171;SDS011;6651;53.200;10.432;2023-07-20T13:55:55;2.67;;;0.98;;
13171;SDS011;6651;53.200;10.432;2023-07-20T13:59:07;3.83;;;1.33;;
13171;SDS011;6651;53.200;10.432;2023-07-20T14:05:23;2.78;;;1.25;;
13171;SDS011;6651;53.200;10.432;2023-07-20T14:07:49;3.70;;;1.10;;
13171;SDS011;6651;53.200;10.432;2023-07-20T14:10:39;2.20;;;1.10;;
13171;SDS011;6651;53.200;10.432;2023-07-20T14:13:30;1.75;;;1.00;;
13171;SDS011;6651;53.200;10.432;2023-07-20T14:16:21;1.55;;;1.10;;
13171;SDS011;6651;53.200;10.432;2023-07-20T14:19:12;2.42;;;1.10;;
13171;SDS011;6651;53.200;10.432;2023-07-20T14:22:02;3.47;;;1.25;;
13171;SDS011;6651;53.200;10.432;2023-07-20T14:27:44;3.53;;;1.45;;
13171;SDS011;6651;53.200;10.432;2023-07-20T14:30:35;3.92;;;1.40;;
13171;SDS011;6651;53.200;10.432;2023-07-20T14:45:20;4.72;;;2.22;;
13171;SDS011;6651;53.200;10.432;2023-07-20T16:59:47;4.95;;;1.77;;
13171;SDS011;6651;53.200;10.432;2023-07-20T17:02:16;3.60;;;1.80;;
13171;SDS011;6651;53.200;10.432;2023-07-20T17:04:42;3.22;;;1.73;;
13171;SDS011;6651;53.200;10.432;2023-07-20T17:07:08;5.40;;;1.65;;
13171;SDS011;6651;53.200;10.432;2023-07-20T17:09:34;5.18;;;1.52;;
13171;SDS011;6651;53.200;10.432;2023-07-20T17:29:00;3.67;;;1.70;;
13171;SDS011;6651;53.200;10.432;2023-07-20T17:31:26;4.32;;;1.60;;
13171;SDS011;6651;53.200;10.432;2023-07-20T17:33:54;2.50;;;1.17;;
13171;SDS011;6651;53.200;10.432;2023-07-20T17:36:19;4.20;;;1.55;;
13171;SDS011;6651;53.200;10.432;2023-07-20T17:38:48;1.83;;;1.42;;
13171;SDS011;6651;53.200;10.432;2023-07-20T17:41:14;2.45;;;1.42;;
13171;SDS011;6651;53.200;10.432;2023-07-20T17:43:40;2.88;;;1.55;;
13171;SDS011;6651;53.200;10.432;2023-07-20T17:46:06;2.13;;;1.58;;
13171;SDS011;6651;53.200;10.432;2023-07-20T17:48:32;1.48;;;1.38;;
13171;SDS011;6651;53.200;10.432;2023-07-20T17:50:58;3.67;;;1.42;;
13171;SDS011;6651;53.200;10.432;2023-07-20T17:53:24;2.15;;;1.38;;
13171;SDS011;6651;53.200;10.432;2023-07-20T17:55:51;3.05;;;1.30;;
13171;SDS011;6651;53.200;10.432;2023-07-20T17:58:17;1.50;;;1.40;;
13171;SDS011;6651;53.200;10.432;2023-07-20T18:00:42;3.03;;;1.38;;
13171;SDS011;6651;53.200;10.432;2023-07-20T18:03:08;2.65;;;1.40;;
13171;SDS011;6651;53.200;10.432;2023-07-20T18:05:34;2.80;;;1.20;;
13171;SDS011;6651;53.200;10.432;2023-07-20T18:08:00;4.05;;;1.30;;
13171;SDS011;6651;53.200;10.432;2023-07-20T18:10:25;2.92;;;1.50;;
13171;SDS011;6651;53.200;10.432;2023-07-20T18:12:51;2.13;;;1.48;;
13171;SDS011;6651;53.200;10.432;2023-07-20T18:15:17;3.58;;;1.60;;
13171;SDS011;6651;53.200;10.432;2023-07-20T18:17:43;1.98;;;1.27;;